Time;durP1;ratioP1;P1;durP2;ratioP2;P2;SDS_P1;SDS_P2;PMS_P1;PMS_P2;Temp;Humidity;BMP_temperature;BMP_pressure;BME280_temperature;BME280_humidity;BME280_pressure;Samples;Min_cycle;Max_cycle;Signal;HPM_P1;HPM_P2
2022/06/17 00:02:34;;;;;;;0.90;0.90;;;;;;;;;;5158459;27;20255;-58
2022/06/17 00:05:21;;;;;;;0.60;0.60;;;;;;;;;;5154591;27;20246;-58
2022/06/17 00:08:14;;;;;;;0.73;0.73;;;;;;;;;;5157891;27;20560;-58
2022/06/17 00:11:02;;;;;;;0.73;0.73;;;;;;;;;;5159312;27;20212;-61
2022/06/17 00:13:50;;;;;;;0.70;0.67;;;;;;;;;;5158984;27;20660;-58
2022/06/17 00:16:37;;;;;;;1.60;0.80;;;;;;;;;;5167618;27;20362;-59
2022/06/17 00:19:25;;;;;;;0.70;0.70;;;;;;;;;;5158132;27;20193;-57
2022/06/17 00:22:12;;;;;;;1.03;1.03;;;;;;;;;;5157831;27;20211;-59
2022/06/17 00:24:59;;;;;;;0.80;0.80;;;;;;;;;;5160772;27;20660;-58
2022/06/17 00:27:46;;;;;;;0.57;0.57;;;;;;;;;;5158152;27;20689;-58
2022/06/17 00:30:34;;;;;;;0.97;0.90;;;;;;;;;;5160819;27;20217;-58
2022/06/17 00:33:21;;;;;;;1.17;0.80;;;;;;;;;;5158566;27;20242;-58
2022/06/17 00:36:12;;;;;;;0.90;0.90;;;;;;;;;;5163471;27;20308;-58
2022/06/17 00:38:59;;;;;;;0.63;0.63;;;;;;;;;;5161033;27;20193;-58
2022/06/17 00:41:49;;;;;;;0.80;0.80;;;;;;;;;;5161795;27;20208;-59
2022/06/17 00:44:41;;;;;;;2.33;0.83;;;;;;;;;;5161503;27;20682;-58
2022/06/17 00:47:34;;;;;;;0.77;0.77;;;;;;;;;;5157334;27;20240;-59
2022/06/17 00:50:29;;;;;;;0.97;0.97;;;;;;;;;;5161588;27;20685;-58
2022/06/17 00:53:20;;;;;;;0.83;0.83;;;;;;;;;;5160489;27;20215;-58
2022/06/17 00:56:16;;;;;;;0.80;0.80;;;;;;;;;;5155096;27;20199;-63
2022/06/17 00:59:05;;;;;;;0.80;0.80;;;;;;;;;;5159737;27;20309;-58
2022/06/17 01:01:57;;;;;;;1.00;1.00;;;;;;;;;;5157690;27;20722;-58
2022/06/17 01:04:49;;;;;;;0.80;0.80;;;;;;;;;;5158950;27;20200;-58
2022/06/17 01:07:41;;;;;;;0.90;0.90;;;;;;;;;;5159646;27;20217;-59
2022/06/17 01:10:28;;;;;;;0.70;0.70;;;;;;;;;;5157159;27;20230;-58
2022/06/17 01:13:16;;;;;;;0.70;0.70;;;;;;;;;;5162077;27;20200;-58
2022/06/17 01:16:03;;;;;;;0.77;0.77;;;;;;;;;;5167939;27;20663;-58
2022/06/17 01:18:52;;;;;;;0.93;0.93;;;;;;;;;;5158624;27;20201;-58
2022/06/17 01:21:50;;;;;;;0.90;0.90;;;;;;;;;;5150858;27;20212;-57
2022/06/17 01:24:38;;;;;;;0.97;0.97;;;;;;;;;;5157955;27;20664;-63
2022/06/17 01:27:29;;;;;;;1.00;1.00;;;;;;;;;;5164371;27;20270;-58
2022/06/17 01:30:18;;;;;;;0.90;0.90;;;;;;;;;;5154468;27;20300;-58
2022/06/17 01:33:09;;;;;;;0.77;0.77;;;;;;;;;;5154934;27;20270;-58
2022/06/17 01:36:00;;;;;;;1.00;1.00;;;;;;;;;;5155823;27;20279;-58
2022/06/17 01:38:49;;;;;;;0.87;0.87;;;;;;;;;;5160405;27;20208;-58
2022/06/17 01:41:37;;;;;;;0.93;0.93;;;;;;;;;;5155499;27;20216;-58
2022/06/17 01:44:28;;;;;;;0.83;0.83;;;;;;;;;;5157833;27;20201;-58
2022/06/17 01:47:21;;;;;;;0.93;0.90;;;;;;;;;;5162104;27;20205;-58
2022/06/17 01:50:13;;;;;;;0.90;0.90;;;;;;;;;;5157838;27;20232;-59
2022/06/17 01:53:03;;;;;;;0.83;0.83;;;;;;;;;;5159700;27;20552;-59
2022/06/17 01:55:53;;;;;;;1.03;1.03;;;;;;;;;;5158786;27;20208;-58
2022/06/17 01:58:47;;;;;;;0.80;0.80;;;;;;;;;;5158855;27;20620;-59
2022/06/17 02:01:37;;;;;;;0.90;0.90;;;;;;;;;;5165963;27;20249;-58
2022/06/17 02:04:29;;;;;;;0.70;0.70;;;;;;;;;;5162669;27;20665;-58
2022/06/17 02:07:20;;;;;;;1.53;0.90;;;;;;;;;;5159970;27;20649;-59
2022/06/17 02:10:08;;;;;;;0.97;0.97;;;;;;;;;;5161643;27;20216;-58
2022/06/17 02:12:58;;;;;;;1.20;1.10;;;;;;;;;;5165603;27;20212;-58
2022/06/17 02:15:47;;;;;;;0.93;0.93;;;;;;;;;;5163490;27;20258;-58
2022/06/17 02:18:35;;;;;;;1.53;1.03;;;;;;;;;;5157915;27;20209;-59
2022/06/17 02:21:27;;;;;;;0.87;0.87;;;;;;;;;;5159971;27;20197;-58
2022/06/17 02:24:15;;;;;;;1.23;1.20;;;;;;;;;;5165185;27;20288;-58
2022/06/17 02:27:05;;;;;;;0.83;0.83;;;;;;;;;;5168669;27;20198;-57
2022/06/17 02:29:52;;;;;;;1.07;0.97;;;;;;;;;;5162788;27;20221;-58
2022/06/17 02:32:41;;;;;;;0.90;0.90;;;;;;;;;;5162096;27;20213;-59
2022/06/17 02:35:32;;;;;;;1.10;1.03;;;;;;;;;;5157008;27;20725;-58
2022/06/17 02:38:22;;;;;;;0.90;0.90;;;;;;;;;;5165368;27;20216;-58
2022/06/17 02:41:16;;;;;;;1.00;1.00;;;;;;;;;;5162504;27;20224;-58
2022/06/17 02:44:11;;;;;;;0.87;0.87;;;;;;;;;;5162858;27;20720;-58
2022/06/17 02:47:00;;;;;;;0.97;0.97;;;;;;;;;;5159247;27;20208;-59
2022/06/17 02:49:49;;;;;;;1.20;1.10;;;;;;;;;;5162440;27;20316;-58
2022/06/17 02:52:39;;;;;;;0.80;0.80;;;;;;;;;;5156255;27;20749;-58
2022/06/17 02:55:30;;;;;;;0.77;0.77;;;;;;;;;;5157926;27;20220;-58
2022/06/17 02:58:24;;;;;;;1.23;0.97;;;;;;;;;;5161944;27;20204;-58
2022/06/17 03:01:17;;;;;;;0.80;0.80;;;;;;;;;;5159899;27;20332;-59
2022/06/17 03:04:12;;;;;;;1.07;1.07;;;;;;;;;;5158075;27;20201;-58
2022/06/17 03:07:01;;;;;;;0.90;0.90;;;;;;;;;;5159539;27;20212;-59
2022/06/17 03:09:48;;;;;;;0.83;0.83;;;;;;;;;;5157562;27;20256;-58
2022/06/17 03:12:35;;;;;;;1.17;1.00;;;;;;;;;;5157835;27;20200;-57
2022/06/17 03:15:23;;;;;;;1.00;0.97;;;;;;;;;;5161422;27;20204;-58
2022/06/17 03:18:11;;;;;;;0.80;0.80;;;;;;;;;;5166383;27;20732;-59
2022/06/17 03:20:59;;;;;;;0.90;0.90;;;;;;;;;;5158169;27;20292;-59
2022/06/17 03:23:52;;;;;;;0.90;0.90;;;;;;;;;;5157559;27;20209;-58
2022/06/17 03:26:44;;;;;;;1.10;1.10;;;;;;;;;;5160386;27;20213;-58
2022/06/17 03:29:34;;;;;;;0.73;0.73;;;;;;;;;;5160482;27;20206;-59
2022/06/17 03:32:25;;;;;;;1.00;1.00;;;;;;;;;;5164331;27;20204;-59
2022/06/17 03:35:20;;;;;;;0.90;0.90;;;;;;;;;;5159845;27;20272;-58
2022/06/17 03:38:20;;;;;;;0.80;0.80;;;;;;;;;;5167734;27;20205;-59
2022/06/17 03:41:13;;;;;;;1.00;1.00;;;;;;;;;;5160291;27;20198;-58
2022/06/17 03:44:02;;;;;;;1.00;1.00;;;;;;;;;;5157817;27;20202;-57
2022/06/17 03:46:53;;;;;;;0.93;0.93;;;;;;;;;;5153828;27;20203;-58
2022/06/17 03:49:44;;;;;;;0.80;0.80;;;;;;;;;;5157368;27;20317;-59
2022/06/17 03:52:36;;;;;;;0.97;0.97;;;;;;;;;;5153408;27;20202;-57
2022/06/17 03:55:24;;;;;;;1.00;1.00;;;;;;;;;;5159899;27;20565;-58
2022/06/17 03:58:17;;;;;;;1.00;1.00;;;;;;;;;;5163663;27;20212;-58
2022/06/17 04:01:13;;;;;;;1.10;1.10;;;;;;;;;;5164208;27;20227;-58
2022/06/17 04:04:04;;;;;;;1.23;1.13;;;;;;;;;;5161470;27;20203;-58
2022/06/17 04:06:55;;;;;;;1.00;1.00;;;;;;;;;;5159049;27;20210;-58
2022/06/17 04:09:44;;;;;;;1.10;1.10;;;;;;;;;;5159292;27;20222;-58
2022/06/17 04:12:31;;;;;;;0.93;0.93;;;;;;;;;;5164179;27;20972;-58
2022/06/17 04:15:32;;;;;;;1.00;1.00;;;;;;;;;;5158518;27;20215;-58
2022/06/17 04:18:19;;;;;;;1.57;1.10;;;;;;;;;;5157265;27;20217;-58
2022/06/17 04:21:07;;;;;;;1.37;1.13;;;;;;;;;;5161827;27;20202;-58
2022/06/17 04:23:55;;;;;;;0.97;0.87;;;;;;;;;;5156696;27;20209;-58
2022/06/17 04:26:44;;;;;;;1.00;1.00;;;;;;;;;;5156603;27;20203;-58
2022/06/17 04:29:37;;;;;;;1.33;1.23;;;;;;;;;;5158670;27;20206;-63
2022/06/17 04:32:29;;;;;;;1.10;1.10;;;;;;;;;;5159780;27;20206;-58
2022/06/17 04:35:16;;;;;;;1.20;1.20;;;;;;;;;;5163619;27;20250;-58
2022/06/17 04:38:03;;;;;;;1.47;1.37;;;;;;;;;;5163508;27;20553;-58
2022/06/17 04:40:55;;;;;;;1.47;1.13;;;;;;;;;;5158361;27;20202;-58
2022/06/17 04:43:47;;;;;;;1.10;1.10;;;;;;;;;;5157080;27;20196;-59
2022/06/17 04:46:39;;;;;;;1.17;1.07;;;;;;;;;;5159406;27;21102;-58
2022/06/17 04:49:30;;;;;;;1.30;1.30;;;;;;;;;;5161421;27;20207;-58
2022/06/17 04:52:25;;;;;;;1.33;1.23;;;;;;;;;;5161332;27;20206;-59
2022/06/17 04:55:17;;;;;;;1.40;1.30;;;;;;;;;;5155941;27;20213;-58
2022/06/17 04:58:04;;;;;;;1.30;1.30;;;;;;;;;;5162960;27;20338;-59
2022/06/17 05:00:55;;;;;;;1.70;1.60;;;;;;;;;;5158697;27;20676;-58
2022/06/17 05:03:42;;;;;;;1.40;1.23;;;;;;;;;;5161173;27;20211;-59
2022/06/17 05:06:30;;;;;;;1.90;1.80;;;;;;;;;;5158552;27;20220;-59
2022/06/17 05:09:21;;;;;;;1.37;1.30;;;;;;;;;;5163004;27;20565;-58
2022/06/17 05:12:14;;;;;;;1.33;1.30;;;;;;;;;;5161406;27;20249;-59
2022/06/17 05:15:06;;;;;;;1.40;1.40;;;;;;;;;;5154441;27;20202;-58
2022/06/17 05:17:54;;;;;;;1.30;1.30;;;;;;;;;;5153169;27;20212;-58
2022/06/17 05:20:42;;;;;;;1.57;1.47;;;;;;;;;;5157499;27;20574;-59
2022/06/17 05:23:31;;;;;;;2.07;1.20;;;;;;;;;;5156699;27;20214;-59
2022/06/17 05:26:18;;;;;;;1.50;1.40;;;;;;;;;;5156005;27;20211;-58
2022/06/17 05:29:07;;;;;;;1.40;1.30;;;;;;;;;;5155038;27;20198;-59
2022/06/17 05:31:54;;;;;;;1.50;1.40;;;;;;;;;;5155810;27;20250;-58
2022/06/17 05:34:41;;;;;;;1.53;1.47;;;;;;;;;;5154633;27;20247;-59
2022/06/17 05:37:28;;;;;;;1.60;1.50;;;;;;;;;;5156929;27;20294;-67
2022/06/17 05:40:17;;;;;;;1.23;1.23;;;;;;;;;;5155978;27;20194;-58
2022/06/17 05:43:05;;;;;;;1.50;1.40;;;;;;;;;;5152397;27;20234;-59
2022/06/17 05:45:52;;;;;;;1.80;1.70;;;;;;;;;;5158769;27;20203;-58
2022/06/17 05:48:39;;;;;;;1.30;1.20;;;;;;;;;;5155374;27;20212;-59
2022/06/17 05:51:27;;;;;;;1.77;1.67;;;;;;;;;;5156822;27;20222;-59
2022/06/17 05:54:14;;;;;;;1.63;1.20;;;;;;;;;;5157739;27;20281;-58
2022/06/17 05:57:03;;;;;;;1.15;1.13;;;;;;;;;;5154816;27;20199;-58
2022/06/17 05:59:50;;;;;;;1.50;1.50;;;;;;;;;;5156245;27;20303;-58
2022/06/17 06:02:36;;;;;;;1.35;1.35;;;;;;;;;;5159549;27;20542;-58
2022/06/17 06:05:25;;;;;;;1.50;1.40;;;;;;;;;;5158839;27;20207;-58
2022/06/17 06:08:12;;;;;;;1.70;1.60;;;;;;;;;;5159874;27;20658;-58
2022/06/17 06:10:59;;;;;;;1.85;1.55;;;;;;;;;;5157288;27;20211;-58
2022/06/17 06:13:48;;;;;;;1.35;1.35;;;;;;;;;;5161024;27;20203;-59
2022/06/17 06:16:37;;;;;;;1.60;1.50;;;;;;;;;;5152522;27;20613;-58
2022/06/17 06:19:24;;;;;;;2.88;1.75;;;;;;;;;;5156954;27;20224;-59
2022/06/17 06:22:11;;;;;;;1.75;1.65;;;;;;;;;;5159145;27;20664;-58
2022/06/17 06:24:58;;;;;;;1.70;1.60;;;;;;;;;;5153595;27;20248;-58
2022/06/17 06:27:45;;;;;;;1.83;1.73;;;;;;;;;;5154564;27;20204;-58
2022/06/17 06:30:33;;;;;;;2.13;1.80;;;;;;;;;;5153723;27;20236;-58
2022/06/17 06:33:21;;;;;;;1.80;1.70;;;;;;;;;;5154195;27;20201;-59
2022/06/17 06:36:08;;;;;;;1.63;1.52;;;;;;;;;;5157947;27;20239;-59
2022/06/17 06:38:55;;;;;;;1.55;1.45;;;;;;;;;;5159800;27;20196;-59
2022/06/17 06:41:42;;;;;;;1.60;1.60;;;;;;;;;;5154491;27;20617;-59
2022/06/17 06:44:29;;;;;;;1.45;1.27;;;;;;;;;;5155262;27;20208;-58
2022/06/17 06:47:17;;;;;;;2.00;1.65;;;;;;;;;;5157237;27;20204;-58
2022/06/17 06:50:06;;;;;;;1.65;1.55;;;;;;;;;;5157875;27;20206;-58
2022/06/17 06:52:53;;;;;;;1.52;1.42;;;;;;;;;;5163238;27;20288;-55
2022/06/17 06:55:40;;;;;;;1.80;1.70;;;;;;;;;;5162648;27;20221;-57
2022/06/17 06:58:27;;;;;;;1.60;1.50;;;;;;;;;;5165248;27;20215;-63
2022/06/17 07:01:14;;;;;;;1.88;1.65;;;;;;;;;;5166184;27;20213;-57
2022/06/17 07:04:03;;;;;;;1.70;1.60;;;;;;;;;;5161801;27;20240;-55
2022/06/17 07:06:50;;;;;;;1.52;1.42;;;;;;;;;;5157399;27;20282;-56
2022/06/17 07:09:37;;;;;;;1.60;1.45;;;;;;;;;;5155078;27;20730;-57
2022/06/17 07:12:24;;;;;;;1.65;1.55;;;;;;;;;;5160073;27;20221;-57
2022/06/17 07:15:12;;;;;;;1.45;1.35;;;;;;;;;;5161746;27;20211;-55
2022/06/17 07:18:02;;;;;;;2.08;1.48;;;;;;;;;;5160548;27;20579;-57
2022/06/17 07:20:52;;;;;;;1.65;1.50;;;;;;;;;;5157635;27;20858;-58
2022/06/17 07:23:41;;;;;;;1.40;1.30;;;;;;;;;;5159077;27;20204;-57
2022/06/17 07:26:28;;;;;;;1.95;1.55;;;;;;;;;;5163248;27;20311;-57
2022/06/17 07:29:15;;;;;;;1.73;1.50;;;;;;;;;;5165595;27;20300;-57
2022/06/17 07:32:02;;;;;;;1.33;1.23;;;;;;;;;;5162788;27;20327;-58
2022/06/17 07:34:49;;;;;;;1.38;1.27;;;;;;;;;;5162440;27;20231;-57
2022/06/17 07:40:47;;;;;;;1.40;1.30;;;;;;;;;;5167050;27;20233;-58
2022/06/17 07:43:34;;;;;;;1.40;1.30;;;;;;;;;;5159907;27;20196;-58
2022/06/17 07:46:22;;;;;;;1.67;1.60;;;;;;;;;;5156313;27;20208;-58
2022/06/17 07:49:09;;;;;;;1.85;1.75;;;;;;;;;;5158788;27;20290;-58
2022/06/17 07:51:56;;;;;;;1.50;1.40;;;;;;;;;;5153831;27;20213;-58
2022/06/17 07:54:45;;;;;;;1.65;1.55;;;;;;;;;;5159012;27;20204;-58
2022/06/17 07:57:32;;;;;;;1.40;1.30;;;;;;;;;;5158800;27;20204;-57
2022/06/17 08:00:22;;;;;;;1.40;1.30;;;;;;;;;;5159216;27;20206;-57
2022/06/17 08:03:10;;;;;;;1.40;1.30;;;;;;;;;;5156569;27;20291;-57
2022/06/17 08:05:59;;;;;;;1.70;1.60;;;;;;;;;;5159600;27;20579;-58
2022/06/17 08:08:48;;;;;;;1.55;1.45;;;;;;;;;;5158690;27;20202;-58
2022/06/17 08:11:36;;;;;;;1.92;1.30;;;;;;;;;;5154197;27;20235;-60
2022/06/17 08:14:23;;;;;;;1.48;1.38;;;;;;;;;;5161767;27;20204;-58
2022/06/17 08:17:13;;;;;;;1.50;1.40;;;;;;;;;;5157657;27;20199;-58
2022/06/17 08:20:00;;;;;;;1.42;1.33;;;;;;;;;;5159307;27;20200;-57
2022/06/17 08:22:47;;;;;;;1.42;1.33;;;;;;;;;;5153873;27;20225;-57
2022/06/17 08:25:34;;;;;;;1.33;1.13;;;;;;;;;;5161121;27;20197;-58
2022/06/17 08:28:23;;;;;;;1.40;1.30;;;;;;;;;;5156565;27;20580;-58
2022/06/17 08:31:10;;;;;;;1.48;1.35;;;;;;;;;;5156448;27;20599;-57
2022/06/17 08:33:57;;;;;;;1.23;1.23;;;;;;;;;;5158316;27;20249;-57
2022/06/17 08:36:44;;;;;;;1.30;1.20;;;;;;;;;;5154922;27;21016;-57
2022/06/17 08:39:33;;;;;;;1.35;1.25;;;;;;;;;;5157560;27;20207;-58
2022/06/17 08:42:33;;;;;;;1.67;1.10;;;;;;;;;;5157613;27;20204;-57
2022/06/17 08:45:31;;;;;;;1.02;1.02;;;;;;;;;;5159959;27;20216;-56
2022/06/17 08:48:32;;;;;;;2.05;1.33;;;;;;;;;;5158255;27;20575;-55
2022/06/17 08:51:31;;;;;;;1.30;1.27;;;;;;;;;;5158192;27;20228;-55
2022/06/17 08:54:37;;;;;;;1.55;1.45;;;;;;;;;;5154997;27;20215;-55
2022/06/17 08:57:33;;;;;;;1.45;1.35;;;;;;;;;;5160816;27;20211;-55
2022/06/17 09:00:31;;;;;;;1.38;1.27;;;;;;;;;;5152193;27;20671;-56
2022/06/17 09:03:37;;;;;;;1.38;1.27;;;;;;;;;;5154980;27;20244;-56
2022/06/17 09:06:39;;;;;;;1.38;1.27;;;;;;;;;;5162646;27;20252;-57
2022/06/17 09:09:49;;;;;;;1.40;1.30;;;;;;;;;;5157083;27;20672;-56
2022/06/17 09:12:50;;;;;;;1.80;1.27;;;;;;;;;;5160712;27;20220;-56
2022/06/17 09:15:43;;;;;;;1.23;1.15;;;;;;;;;;5160747;27;20203;-56
2022/06/17 09:18:35;;;;;;;1.70;1.60;;;;;;;;;;5154712;27;20800;-56
2022/06/17 09:21:26;;;;;;;1.17;1.17;;;;;;;;;;5154122;27;20220;-56
2022/06/17 09:24:19;;;;;;;1.40;1.30;;;;;;;;;;5162146;27;20368;-56
2022/06/17 09:27:09;;;;;;;1.00;1.00;;;;;;;;;;5154524;27;20269;-59
2022/06/17 09:29:59;;;;;;;1.25;1.25;;;;;;;;;;5155787;27;20197;-58
2022/06/17 09:32:52;;;;;;;1.40;1.30;;;;;;;;;;5151212;27;20266;-60
2022/06/17 09:35:44;;;;;;;2.58;1.30;;;;;;;;;;5156229;27;20232;-58
2022/06/17 09:38:38;;;;;;;1.33;1.23;;;;;;;;;;5154365;27;20295;-58
2022/06/17 09:41:32;;;;;;;1.40;1.30;;;;;;;;;;5159093;27;20204;-58
2022/06/17 09:44:22;;;;;;;1.20;1.10;;;;;;;;;;5155909;27;20208;-57
2022/06/17 09:47:19;;;;;;;1.50;1.40;;;;;;;;;;5154098;27;20325;-58
2022/06/17 09:50:12;;;;;;;1.40;1.30;;;;;;;;;;5155491;27;20205;-58
2022/06/17 09:53:03;;;;;;;2.47;1.30;;;;;;;;;;5156597;27;20228;-57
2022/06/17 09:55:56;;;;;;;1.90;1.30;;;;;;;;;;5158014;27;20669;-59
2022/06/17 09:58:49;;;;;;;1.00;1.00;;;;;;;;;;5167319;27;20211;-58
2022/06/17 10:01:36;;;;;;;1.27;1.20;;;;;;;;;;5154489;27;20306;-58
2022/06/17 10:04:25;;;;;;;1.45;1.35;;;;;;;;;;5159158;27;20294;-58
2022/06/17 10:07:22;;;;;;;0.98;0.98;;;;;;;;;;5155867;27;20584;-58
2022/06/17 10:10:21;;;;;;;1.58;1.50;;;;;;;;;;5164339;27;20196;-58
2022/06/17 10:13:18;;;;;;;1.38;1.25;;;;;;;;;;5158809;27;20231;-58
2022/06/17 10:19:27;;;;;;;0.88;0.88;;;;;;;;;;5159734;27;20235;-57
2022/06/17 10:22:28;;;;;;;1.30;1.20;;;;;;;;;;5162261;27;20275;-58
2022/06/17 10:25:27;;;;;;;1.00;1.00;;;;;;;;;;5157206;27;20246;-58
2022/06/17 10:28:37;;;;;;;0.90;0.90;;;;;;;;;;5159451;27;20272;-59
2022/06/17 10:31:34;;;;;;;1.17;1.10;;;;;;;;;;5158877;27;20288;-58
2022/06/17 10:34:24;;;;;;;1.38;1.27;;;;;;;;;;5161984;27;20200;-58
2022/06/17 10:37:12;;;;;;;1.00;1.00;;;;;;;;;;5157490;27;20201;-59
2022/06/17 10:40:02;;;;;;;0.90;0.90;;;;;;;;;;5165086;27;20305;-58
2022/06/17 10:42:57;;;;;;;1.05;1.05;;;;;;;;;;5165044;27;20200;-58
2022/06/17 10:45:44;;;;;;;1.27;1.20;;;;;;;;;;5162193;27;20231;-58
2022/06/17 10:48:37;;;;;;;1.20;1.10;;;;;;;;;;5162760;27;20211;-58
2022/06/17 10:51:25;;;;;;;0.93;0.93;;;;;;;;;;5156718;27;20236;-57
2022/06/17 10:54:20;;;;;;;1.08;1.08;;;;;;;;;;5162752;27;20207;-58
2022/06/17 10:57:11;;;;;;;1.10;1.10;;;;;;;;;;5160197;27;20688;-59
2022/06/17 10:59:58;;;;;;;1.15;1.15;;;;;;;;;;5161999;27;20252;-58
2022/06/17 11:02:45;;;;;;;1.13;1.13;;;;;;;;;;5162595;27;20592;-59
2022/06/17 11:05:34;;;;;;;0.93;0.93;;;;;;;;;;5155761;27;20640;-57
2022/06/17 11:08:23;;;;;;;0.90;0.90;;;;;;;;;;5161407;27;20241;-59
2022/06/17 11:14:21;;;;;;;1.13;1.10;;;;;;;;;;5159302;27;20211;-58
2022/06/17 11:17:29;;;;;;;1.00;1.00;;;;;;;;;;5164186;27;20211;-58
2022/06/17 11:20:23;;;;;;;0.95;0.95;;;;;;;;;;5159431;27;20241;-58
2022/06/17 11:23:19;;;;;;;1.10;0.98;;;;;;;;;;5160501;27;20196;-57
2022/06/17 11:26:14;;;;;;;1.48;1.20;;;;;;;;;;5160091;27;20243;-58
2022/06/17 11:29:03;;;;;;;0.80;0.80;;;;;;;;;;5165775;27;20220;-58
2022/06/17 11:31:51;;;;;;;1.00;1.00;;;;;;;;;;5158142;27;20231;-58
2022/06/17 11:34:48;;;;;;;2.08;0.95;;;;;;;;;;5162609;27;20207;-58
2022/06/17 11:37:36;;;;;;;0.73;0.73;;;;;;;;;;5166950;27;20686;-57
2022/06/17 11:40:25;;;;;;;1.00;1.00;;;;;;;;;;5161266;27;20200;-58
2022/06/17 11:43:25;;;;;;;1.05;1.00;;;;;;;;;;5155952;27;20196;-58
2022/06/17 11:46:16;;;;;;;0.95;0.90;;;;;;;;;;5160221;27;20353;-59
2022/06/17 11:49:11;;;;;;;0.93;0.93;;;;;;;;;;5166754;27;20549;-59
2022/06/17 11:52:01;;;;;;;0.77;0.77;;;;;;;;;;5157740;27;20239;-58
2022/06/17 11:54:52;;;;;;;0.93;0.93;;;;;;;;;;5157991;27;20248;-58
2022/06/17 11:57:41;;;;;;;0.90;0.90;;;;;;;;;;5157025;27;20211;-58
2022/06/17 12:00:42;;;;;;;1.00;1.00;;;;;;;;;;5161376;27;20225;-58
2022/06/17 12:03:42;;;;;;;0.90;0.90;;;;;;;;;;5159797;27;20206;-58
2022/06/17 12:06:43;;;;;;;1.20;1.10;;;;;;;;;;5159901;27;20557;-58
2022/06/17 12:09:34;;;;;;;1.10;1.00;;;;;;;;;;5164339;27;20208;-58
2022/06/17 12:12:23;;;;;;;0.95;0.95;;;;;;;;;;5159337;27;20219;-58
2022/06/17 12:15:19;;;;;;;1.20;1.13;;;;;;;;;;5154726;27;20199;-58
2022/06/17 12:18:12;;;;;;;0.77;0.77;;;;;;;;;;5166086;27;20238;-58
2022/06/17 12:21:24;;;;;;;1.10;1.10;;;;;;;;;;5162694;27;20273;-57
2022/06/17 12:24:23;;;;;;;0.70;0.70;;;;;;;;;;5154953;27;20207;-58
2022/06/17 12:27:21;;;;;;;1.10;1.08;;;;;;;;;;5159130;27;20684;-57
2022/06/17 12:30:13;;;;;;;1.65;0.95;;;;;;;;;;5156088;27;20203;-59
2022/06/17 12:33:05;;;;;;;0.88;0.88;;;;;;;;;;5156740;27;20301;-58
2022/06/17 12:35:58;;;;;;;0.80;0.80;;;;;;;;;;5162417;27;20706;-58
2022/06/17 12:38:53;;;;;;;0.90;0.90;;;;;;;;;;5160672;27;20227;-58
2022/06/17 12:41:48;;;;;;;1.00;1.00;;;;;;;;;;5155849;27;20200;-58
2022/06/17 12:44:45;;;;;;;0.93;0.93;;;;;;;;;;5158280;27;20207;-58
2022/06/17 12:47:45;;;;;;;0.85;0.85;;;;;;;;;;5163685;27;20202;-57
2022/06/17 12:53:55;;;;;;;0.93;0.80;;;;;;;;;;5161064;27;20221;-58
2022/06/17 12:56:50;;;;;;;0.90;0.90;;;;;;;;;;5162225;27;20208;-58
2022/06/17 12:59:51;;;;;;;1.13;0.90;;;;;;;;;;5156904;27;20247;-58
2022/06/17 13:03:00;;;;;;;1.10;1.10;;;;;;;;;;5156069;27;20232;-58
2022/06/17 13:05:48;;;;;;;1.17;0.93;;;;;;;;;;5160336;27;20647;-58
2022/06/17 13:08:48;;;;;;;0.90;0.90;;;;;;;;;;5158066;27;20227;-57
2022/06/17 13:11:42;;;;;;;1.88;0.82;;;;;;;;;;5160680;27;20200;-59
2022/06/17 13:14:41;;;;;;;1.08;1.00;;;;;;;;;;5163212;27;20272;-58
2022/06/17 13:17:33;;;;;;;0.70;0.70;;;;;;;;;;5162418;27;20228;-58
2022/06/17 13:20:27;;;;;;;1.13;1.13;;;;;;;;;;5162229;27;20692;-58
2022/06/17 13:23:21;;;;;;;0.88;0.88;;;;;;;;;;5159057;27;20311;-58
2022/06/17 13:26:14;;;;;;;1.00;1.00;;;;;;;;;;5160341;27;20255;-58
2022/06/17 13:29:08;;;;;;;1.80;1.10;;;;;;;;;;5156626;27;20195;-59
2022/06/17 13:32:02;;;;;;;1.02;1.02;;;;;;;;;;5162186;27;20656;-59
2022/06/17 13:34:56;;;;;;;0.88;0.73;;;;;;;;;;5159003;27;20239;-58
2022/06/17 13:37:48;;;;;;;0.82;0.82;;;;;;;;;;5157561;27;20222;-58
2022/06/17 13:40:41;;;;;;;0.90;0.90;;;;;;;;;;5160547;27;20200;-58
2022/06/17 13:43:35;;;;;;;0.80;0.80;;;;;;;;;;5159956;27;20198;-57
2022/06/17 13:46:28;;;;;;;0.75;0.75;;;;;;;;;;5157478;27;20191;-58
2022/06/17 13:49:24;;;;;;;0.82;0.82;;;;;;;;;;5162056;27;20207;-58
2022/06/17 13:52:16;;;;;;;0.85;0.85;;;;;;;;;;5156475;27;20234;-57
2022/06/17 13:55:16;;;;;;;0.93;0.80;;;;;;;;;;5154680;27;20284;-58
2022/06/17 13:58:14;;;;;;;1.17;1.17;;;;;;;;;;5161341;27;20580;-58
2022/06/17 14:01:09;;;;;;;0.98;0.98;;;;;;;;;;5159821;27;20227;-58
2022/06/17 14:04:10;;;;;;;0.95;0.93;;;;;;;;;;5161464;27;20200;-57
2022/06/17 14:07:02;;;;;;;1.02;1.00;;;;;;;;;;5163304;27;20290;-58
2022/06/17 14:09:49;;;;;;;1.20;0.90;;;;;;;;;;5158817;27;20207;-58
2022/06/17 14:12:43;;;;;;;1.25;0.95;;;;;;;;;;5155707;27;20701;-57
2022/06/17 14:15:33;;;;;;;1.05;1.05;;;;;;;;;;5160030;27;20203;-58
2022/06/17 14:18:24;;;;;;;1.00;0.90;;;;;;;;;;5158905;27;20210;-57
2022/06/17 14:21:17;;;;;;;2.35;1.08;;;;;;;;;;5153941;27;20209;-58
2022/06/17 14:24:10;;;;;;;1.00;1.00;;;;;;;;;;5150653;27;20207;-57
2022/06/17 14:26:58;;;;;;;2.13;1.10;;;;;;;;;;5158148;27;20206;-58
2022/06/17 14:29:45;;;;;;;1.00;1.00;;;;;;;;;;5155755;27;20278;-58
2022/06/17 14:32:54;;;;;;;1.13;1.13;;;;;;;;;;5158228;27;20211;-57
2022/06/17 14:35:51;;;;;;;0.90;0.90;;;;;;;;;;5156243;27;20238;-58
2022/06/17 14:38:44;;;;;;;1.27;0.85;;;;;;;;;;5158023;27;20328;-57
2022/06/17 14:44:48;;;;;;;0.85;0.85;;;;;;;;;;5158055;27;20200;-57
2022/06/17 14:47:42;;;;;;;1.00;0.85;;;;;;;;;;5158431;27;20220;-58
2022/06/17 14:50:47;;;;;;;0.90;0.90;;;;;;;;;;5157009;27;20209;-58
2022/06/17 14:53:48;;;;;;;0.93;0.93;;;;;;;;;;5161208;27;20225;-58
2022/06/17 14:56:43;;;;;;;1.38;1.27;;;;;;;;;;5157105;27;20205;-58
2022/06/17 14:59:34;;;;;;;1.00;1.00;;;;;;;;;;5152713;27;20347;-59
2022/06/17 15:02:38;;;;;;;1.02;1.00;;;;;;;;;;5156545;27;20225;-57
2022/06/17 15:05:29;;;;;;;0.85;0.85;;;;;;;;;;5155066;27;20195;-57
2022/06/17 15:08:24;;;;;;;1.10;1.05;;;;;;;;;;5154888;27;20207;-58
2022/06/17 15:11:21;;;;;;;1.48;1.08;;;;;;;;;;5156438;27;20208;-57
2022/06/17 15:14:17;;;;;;;1.30;1.20;;;;;;;;;;5153229;27;20681;-58
2022/06/17 15:17:07;;;;;;;1.00;1.00;;;;;;;;;;5159700;27;20594;-58
2022/06/17 15:19:55;;;;;;;1.15;1.05;;;;;;;;;;5161183;27;20203;-59
2022/06/17 15:23:20;;;;;;;0.80;0.80;;;;;;;;;;5161148;27;20201;-57
2022/06/17 15:26:11;;;;;;;0.95;0.95;;;;;;;;;;5078686;28;20210;-57
2022/06/17 15:29:00;;;;;;;1.15;1.10;;;;;;;;;;5160918;27;20197;-58
2022/06/17 15:31:50;;;;;;;0.95;0.95;;;;;;;;;;5161195;27;20211;-57
2022/06/17 15:34:37;;;;;;;1.00;1.00;;;;;;;;;;5156017;27;20721;-57
2022/06/17 15:37:27;;;;;;;1.30;1.20;;;;;;;;;;5163354;27;20211;-58
2022/06/17 15:40:20;;;;;;;1.42;1.33;;;;;;;;;;5160786;27;20195;-57
2022/06/17 15:43:12;;;;;;;1.27;1.27;;;;;;;;;;5156324;27;20215;-58
2022/06/17 15:46:13;;;;;;;1.15;1.10;;;;;;;;;;5167095;27;20644;-58
2022/06/17 15:49:07;;;;;;;1.23;1.15;;;;;;;;;;5158166;27;20196;-58
2022/06/17 15:52:02;;;;;;;1.20;1.20;;;;;;;;;;5156278;27;20205;-58
2022/06/17 15:54:52;;;;;;;1.10;1.10;;;;;;;;;;5160076;27;20223;-58
2022/06/17 15:57:56;;;;;;;0.95;0.95;;;;;;;;;;5159180;27;20212;-58
2022/06/17 16:00:43;;;;;;;1.00;1.00;;;;;;;;;;5155698;27;20686;-57
2022/06/17 16:03:32;;;;;;;1.65;1.20;;;;;;;;;;5155842;27;20226;-58
2022/06/17 16:06:27;;;;;;;1.33;1.23;;;;;;;;;;5157351;27;21138;-57
2022/06/17 16:09:37;;;;;;;1.17;1.17;;;;;;;;;;5157993;27;20208;-58
2022/06/17 16:12:39;;;;;;;1.25;1.25;;;;;;;;;;5159621;27;20215;-59
2022/06/17 16:15:35;;;;;;;1.10;1.10;;;;;;;;;;5157056;27;20699;-58
2022/06/17 16:18:32;;;;;;;1.60;1.50;;;;;;;;;;5161175;27;20207;-58
2022/06/17 16:21:35;;;;;;;1.75;1.30;;;;;;;;;;5155218;27;20208;-57
2022/06/17 16:24:42;;;;;;;1.35;1.35;;;;;;;;;;5160494;27;20278;-59
2022/06/17 16:27:33;;;;;;;1.00;1.00;;;;;;;;;;5159900;27;20207;-58
2022/06/17 16:30:24;;;;;;;1.40;1.40;;;;;;;;;;5158846;27;20204;-58
2022/06/17 16:33:21;;;;;;;1.30;1.25;;;;;;;;;;5158572;27;20200;-58
2022/06/17 16:36:10;;;;;;;1.30;1.20;;;;;;;;;;5156139;27;20230;-58
2022/06/17 16:39:03;;;;;;;1.10;1.10;;;;;;;;;;5157341;27;20220;-58
2022/06/17 16:45:25;;;;;;;1.50;1.45;;;;;;;;;;5159576;27;20208;-58
2022/06/17 16:48:12;;;;;;;2.60;1.40;;;;;;;;;;5159068;27;20200;-58
2022/06/17 16:51:00;;;;;;;1.10;1.10;;;;;;;;;;5161685;27;20221;-59
2022/06/17 16:53:48;;;;;;;1.70;1.02;;;;;;;;;;5156997;27;20571;-58
2022/06/17 16:56:37;;;;;;;1.25;1.25;;;;;;;;;;5158762;27;20286;-58
2022/06/17 16:59:24;;;;;;;1.10;1.10;;;;;;;;;;5158980;27;20207;-58
2022/06/17 17:02:12;;;;;;;1.42;1.33;;;;;;;;;;5156915;27;20228;-58
2022/06/17 17:04:59;;;;;;;1.25;1.17;;;;;;;;;;5159817;27;20567;-58
2022/06/17 17:07:47;;;;;;;1.92;1.30;;;;;;;;;;5159266;27;20204;-58
2022/06/17 17:10:36;;;;;;;1.35;1.25;;;;;;;;;;5160568;27;20672;-59
2022/06/17 17:13:24;;;;;;;1.50;1.40;;;;;;;;;;5156871;27;20207;-57
2022/06/17 17:16:13;;;;;;;1.08;1.08;;;;;;;;;;5157494;27;20290;-58
2022/06/17 17:19:01;;;;;;;1.40;1.38;;;;;;;;;;5162066;27;20289;-58
2022/06/17 17:21:50;;;;;;;1.23;1.13;;;;;;;;;;5160838;27;20601;-57
2022/06/17 17:24:41;;;;;;;1.20;1.20;;;;;;;;;;5162645;27;20584;-58
2022/06/17 17:27:29;;;;;;;1.30;1.30;;;;;;;;;;5158778;27;20202;-58
2022/06/17 17:30:19;;;;;;;1.20;1.20;;;;;;;;;;5158433;27;20199;-58